Jewett, Wisconsin
Current Conditions -  °F | °C
As of 6:35 PM on Saturday 25 Oct 2014 (Local Time) from KRNH Reporting Station
Clear Clear  
Wind Chill: 10°   Ceiling: Unl
Heat Index: 10°   Visibility: 10mi
Dew Point: -4°   Wind: 8mph
Humidity: 38%   Direction: 280°W
Pressure: 30.02"   Gusts: NA
Location:  45.1804°N, 92.551°W
Report Text: KRNH 252335Z AUTO 28007KT 10SM CLR 10/M04 A3002 RMK AO2 T01031036
Loading
Personal Weather Stations






























Interactive Weather Map
Tropical Storm Tracking
New forecast layout! Learn more

10-Day Weather Forecast

Advertisements
Track Severe Weather on mobile